createdAt,value
2019-03-05T00:00:39.927Z,11.67
2019-03-05T00:05:33.915Z,8.67
2019-03-05T00:10:27.756Z,10.80
2019-03-05T00:15:28.799Z,11.60
2019-03-05T00:20:22.766Z,12.03
2019-03-05T00:25:22.739Z,10.20
2019-03-05T00:30:31.934Z,8.20
2019-03-05T00:35:32.651Z,5.80
2019-03-05T00:40:33.259Z,7.40
2019-03-05T00:45:42.546Z,6.90
2019-03-05T00:50:40.231Z,6.70
2019-03-05T00:56:04.768Z,11.63
2019-03-05T01:01:08.445Z,6.67
2019-03-05T01:06:22.809Z,10.43
2019-03-05T01:11:17.574Z,5.07
2019-03-05T01:16:13.530Z,1.87
2019-03-05T01:21:07.698Z,2.93
2019-03-05T01:26:01.854Z,5.80
2019-03-05T01:31:14.542Z,1.53
2019-03-05T01:36:10.452Z,3.33
2019-03-05T01:41:06.223Z,2.20
2019-03-05T01:46:00.245Z,4.80
2019-03-05T01:50:54.150Z,3.53
2019-03-05T01:55:47.983Z,2.83
2019-03-05T02:00:41.932Z,3.37
2019-03-05T02:05:35.806Z,5.67
2019-03-05T02:10:32.442Z,6.30
2019-03-05T02:15:26.284Z,7.03
2019-03-05T02:20:22.433Z,3.07
2019-03-05T02:25:31.594Z,7.23
2019-03-05T02:30:50.685Z,6.87
2019-03-05T02:36:06.498Z,4.60
2019-03-05T02:41:34.511Z,4.27
2019-03-05T02:46:32.180Z,3.70
2019-03-05T02:51:29.881Z,3.57
2019-03-05T02:56:33.520Z,6.27
2019-03-05T03:01:35.066Z,8.07
2019-03-05T03:06:29.436Z,4.17
2019-03-05T03:11:23.268Z,3.63
2019-03-05T03:16:17.142Z,7.10
2019-03-05T03:21:12.897Z,2.90
2019-03-05T03:26:06.764Z,7.27
2019-03-05T03:31:00.662Z,5.33
2019-03-05T03:35:54.512Z,9.47
2019-03-05T03:40:48.369Z,10.70
2019-03-05T03:45:42.236Z,9.37
2019-03-05T03:50:36.110Z,7.67
2019-03-05T03:55:30.060Z,7.67
2019-03-05T04:00:24.251Z,3.97
2019-03-05T04:05:18.071Z,6.33
2019-03-05T04:10:14.220Z,8.67
2019-03-05T04:15:15.824Z,8.53
2019-03-05T04:20:12.370Z,4.67
2019-03-05T04:25:07.913Z,5.03
2019-03-05T04:30:03.456Z,8.57
2019-03-05T04:34:57.323Z,7.27
2019-03-05T04:39:51.272Z,7.67
2019-03-05T04:44:47.037Z,10.57
2019-03-05T04:49:45.869Z,7.97
2019-03-05T04:54:39.826Z,11.37
2019-03-05T04:59:33.774Z,6.77
2019-03-05T05:04:27.588Z,10.07
2019-03-05T05:09:21.432Z,7.63
2019-03-05T05:14:15.435Z,7.50
2019-03-05T05:19:09.248Z,7.03
2019-03-05T05:24:03.199Z,7.27
2019-03-05T05:28:57.048Z,5.07
2019-03-05T05:33:51.020Z,9.30
2019-03-05T05:38:44.854Z,5.37
2019-03-05T05:43:38.715Z,7.87
2019-03-05T05:48:32.768Z,11.17
2019-03-05T05:53:26.655Z,9.77
2019-03-05T05:58:20.505Z,7.00
2019-03-05T06:03:14.448Z,8.97
2019-03-05T06:08:08.298Z,7.37
2019-03-05T06:13:02.285Z,9.30
2019-03-05T06:17:56.142Z,6.67
2019-03-05T06:22:50.099Z,12.67
2019-03-05T06:27:43.937Z,10.93
2019-03-05T06:32:37.878Z,12.40
2019-03-05T06:37:33.049Z,7.47
2019-03-05T06:42:27.089Z,8.20
2019-03-05T06:47:20.938Z,7.20
2019-03-05T06:52:14.850Z,9.23
2019-03-05T06:57:08.792Z,15.30
2019-03-05T07:02:02.870Z,15.87
2019-03-05T07:06:56.735Z,14.50
2019-03-05T07:12:03.773Z,9.43
2019-03-05T07:17:13.784Z,6.87
2019-03-05T07:22:23.794Z,8.90
2019-03-05T07:27:23.583Z,9.77
2019-03-05T07:32:17.566Z,11.70
2019-03-05T07:37:11.714Z,11.57
2019-03-05T07:42:05.678Z,11.73
2019-03-05T07:46:59.650Z,15.20
2019-03-05T07:51:53.530Z,13.43
2019-03-05T07:56:47.491Z,8.20
2019-03-05T08:01:41.551Z,6.70
2019-03-05T08:06:35.534Z,9.30
2019-03-05T08:11:31.753Z,9.23
2019-03-05T08:16:26.191Z,9.47
2019-03-05T08:21:20.168Z,12.70
2019-03-05T08:26:14.356Z,7.40
2019-03-05T08:31:08.302Z,5.47
2019-03-05T08:36:02.674Z,11.57
2019-03-05T08:40:56.588Z,9.03
2019-03-05T08:45:50.475Z,11.00
2019-03-05T08:50:44.853Z,15.67
2019-03-05T08:55:38.872Z,12.30
2019-03-05T09:00:32.825Z,15.73
2019-03-05T09:05:26.930Z,15.70
2019-03-05T09:10:23.198Z,11.97
2019-03-05T09:15:18.254Z,17.37
2019-03-05T09:20:14.650Z,12.70
2019-03-05T09:25:11.548Z,12.83
2019-03-05T09:30:14.655Z,11.53
2019-03-05T09:35:11.481Z,9.63
2019-03-05T09:40:11.384Z,11.80
2019-03-05T09:45:08.782Z,8.47
2019-03-05T09:50:05.766Z,10.70
2019-03-05T09:54:59.635Z,12.07
2019-03-05T09:59:53.721Z,9.10
2019-03-05T10:04:47.710Z,6.93
2019-03-05T10:09:41.563Z,9.07
2019-03-05T10:14:35.441Z,11.60
2019-03-05T10:19:29.310Z,7.73
2019-03-05T10:24:23.321Z,5.53
2019-03-05T10:29:17.209Z,6.47
2019-03-05T10:34:11.269Z,7.23
2019-03-05T10:39:11.942Z,5.03
2019-03-05T10:44:05.936Z,5.97
2019-03-05T10:48:59.905Z,5.33
2019-03-05T10:53:53.908Z,5.93
2019-03-05T10:58:47.933Z,3.80
2019-03-05T11:03:42.132Z,6.47
2019-03-05T11:08:36.086Z,6.30
2019-03-05T11:13:30.048Z,7.10
2019-03-05T11:18:29.531Z,8.73
2019-03-05T11:23:20.097Z,6.87
2019-03-05T11:28:13.953Z,7.77
2019-03-05T11:33:07.931Z,7.17
2019-03-05T11:38:02.139Z,7.27
2019-03-05T11:42:56.065Z,8.47
2019-03-05T11:47:50.477Z,6.83
2019-03-05T11:52:44.736Z,4.47
2019-03-05T11:57:38.696Z,6.50
2019-03-05T12:02:32.557Z,7.00
2019-03-05T12:07:26.559Z,6.00
2019-03-05T12:12:20.528Z,7.07
2019-03-05T12:17:14.480Z,4.93
2019-03-05T12:22:08.325Z,6.23
2019-03-05T12:27:02.318Z,5.93
2019-03-05T12:31:56.272Z,7.30
2019-03-05T12:36:50.304Z,3.33
2019-03-05T12:41:44.391Z,3.67
2019-03-05T12:46:38.293Z,5.10
2019-03-05T12:51:32.315Z,6.30
2019-03-05T12:56:26.617Z,8.63
2019-03-05T13:01:20.617Z,5.57
2019-03-05T13:06:14.735Z,3.47
2019-03-05T13:11:09.334Z,3.30
2019-03-05T13:16:04.618Z,2.77
2019-03-05T13:20:58.539Z,3.70
2019-03-05T13:25:52.512Z,1.65
2019-03-05T13:30:46.386Z,4.53
2019-03-05T13:35:40.363Z,2.33
2019-03-05T13:40:38.388Z,3.08
2019-03-05T13:45:30.480Z,3.75
2019-03-05T13:50:57.303Z,2.05
2019-03-05T13:56:28.454Z,1.75
2019-03-05T14:01:22.469Z,1.72
2019-03-05T14:06:43.037Z,2.87
2019-03-05T14:11:36.999Z,2.47
2019-03-05T14:16:31.122Z,4.92
2019-03-05T14:21:24.993Z,2.70
2019-03-05T14:26:18.932Z,4.70
2019-03-05T14:31:13.034Z,2.30
2019-03-05T14:36:07.025Z,2.17
2019-03-05T14:41:01.187Z,2.95
2019-03-05T14:45:55.182Z,2.10
2019-03-05T14:50:49.065Z,6.83
2019-03-05T14:55:43.079Z,3.22
2019-03-05T15:00:37.403Z,3.02
2019-03-05T15:05:31.485Z,2.05
2019-03-05T15:10:25.326Z,3.35
2019-03-05T15:15:29.995Z,2.85
2019-03-05T15:20:23.936Z,2.60
2019-03-05T15:25:17.921Z,3.65
2019-03-05T15:30:17.904Z,4.78
2019-03-05T15:35:12.335Z,2.92
2019-03-05T15:40:09.172Z,2.42
2019-03-05T15:45:06.121Z,3.35
2019-03-05T15:49:59.923Z,2.65
2019-03-05T15:54:53.883Z,1.87
2019-03-05T15:59:47.770Z,2.75
2019-03-05T16:04:43.736Z,3.10
2019-03-05T16:09:39.136Z,2.92
2019-03-05T16:14:33.885Z,1.80
2019-03-05T16:19:27.939Z,4.92
2019-03-05T16:24:21.789Z,11.10
2019-03-05T16:29:16.248Z,8.80
2019-03-05T16:34:22.909Z,5.87
2019-03-05T16:39:21.444Z,5.43
2019-03-05T16:44:29.294Z,4.20
2019-03-05T16:49:41.886Z,6.07
2019-03-05T16:54:54.460Z,5.80
2019-03-05T16:59:53.370Z,6.33
2019-03-05T17:04:49.294Z,4.90
2019-03-05T17:09:45.393Z,4.50
2019-03-05T17:14:39.403Z,3.83
2019-03-05T17:19:33.382Z,4.83
2019-03-05T17:24:27.731Z,6.83
2019-03-05T17:29:21.615Z,7.80
2019-03-05T17:34:15.692Z,7.17
2019-03-05T17:39:12.030Z,7.03
2019-03-05T17:44:05.906Z,13.13
2019-03-05T17:48:59.775Z,11.33
2019-03-05T17:53:53.685Z,4.83
2019-03-05T17:58:47.737Z,14.00
2019-03-05T18:03:41.615Z,9.20
2019-03-05T18:08:35.497Z,5.87
2019-03-05T18:13:29.466Z,5.83
2019-03-05T18:18:23.297Z,8.77
2019-03-05T18:23:17.258Z,12.00
2019-03-05T18:28:11.170Z,12.43
2019-03-05T18:33:05.542Z,6.90
2019-03-05T18:37:59.506Z,7.83
2019-03-05T18:42:53.471Z,13.00
2019-03-05T18:47:47.755Z,6.53
2019-03-05T18:52:41.796Z,7.77
2019-03-05T18:57:35.778Z,5.57
2019-03-05T19:02:29.749Z,9.47
2019-03-05T19:07:23.648Z,17.40
2019-03-05T19:12:17.638Z,11.53
2019-03-05T19:17:11.653Z,8.53
2019-03-05T19:22:05.660Z,10.17
2019-03-05T19:26:59.537Z,8.60
2019-03-05T19:31:53.444Z,8.87
2019-03-05T19:36:47.334Z,8.97
2019-03-05T19:41:41.503Z,9.03
2019-03-05T19:46:35.414Z,5.70
2019-03-05T19:51:29.636Z,6.77
2019-03-05T19:56:23.623Z,8.43
2019-03-05T20:01:19.503Z,10.07
2019-03-05T20:06:13.512Z,7.83
2019-03-05T20:11:07.942Z,8.13
2019-03-05T20:16:02.647Z,6.37
2019-03-05T20:20:56.534Z,6.60
2019-03-05T20:25:51.002Z,10.37
2019-03-05T20:30:45.286Z,7.27
2019-03-05T20:35:39.294Z,7.63
2019-03-05T20:40:33.402Z,8.20
2019-03-05T20:45:30.503Z,11.40
2019-03-05T20:50:24.648Z,7.10
2019-03-05T20:55:22.897Z,7.23
2019-03-05T21:00:22.592Z,12.07
2019-03-05T21:05:16.610Z,12.73
2019-03-05T21:10:10.735Z,12.30
2019-03-05T21:15:08.440Z,14.13
2019-03-05T21:20:06.293Z,10.53
2019-03-05T21:25:00.288Z,8.73
2019-03-05T21:29:54.254Z,10.07
2019-03-05T21:34:48.236Z,14.10
2019-03-05T21:39:42.277Z,8.90
2019-03-05T21:44:36.162Z,8.73
2019-03-05T21:49:30.092Z,6.93
2019-03-05T21:54:23.986Z,10.17
2019-03-05T21:59:17.864Z,8.37
2019-03-05T22:04:11.806Z,5.13
2019-03-05T22:09:05.814Z,7.77
2019-03-05T22:13:59.767Z,8.57
2019-03-05T22:18:53.623Z,10.47
2019-03-05T22:23:47.518Z,8.60
2019-03-05T22:28:41.388Z,8.60
2019-03-05T22:33:35.350Z,6.80
2019-03-05T22:38:29.274Z,7.37
2019-03-05T22:43:23.315Z,5.33
2019-03-05T22:48:17.306Z,9.93
2019-03-05T22:53:11.223Z,8.07
2019-03-05T22:58:05.493Z,6.80
2019-03-05T23:02:59.859Z,7.43
2019-03-05T23:07:53.722Z,8.03
2019-03-05T23:12:48.110Z,8.17
2019-03-05T23:17:42.381Z,5.27
2019-03-05T23:22:36.379Z,7.40
2019-03-05T23:27:30.328Z,10.57
2019-03-05T23:32:24.196Z,5.03
2019-03-05T23:37:18.132Z,6.23
2019-03-05T23:42:12.109Z,9.40
2019-03-05T23:47:06.480Z,8.67
2019-03-05T23:52:00.405Z,7.17
2019-03-05T23:56:54.369Z,5.87
